Time;durP1;ratioP1;P1;durP2;ratioP2;P2;SDS_P1;SDS_P2;PMS_P1;PMS_P2;Temp;Humidity;BMP_temperature;BMP_pressure;BME280_temperature;BME280_humidity;BME280_pressure;Samples;Min_cycle;Max_cycle;Signal;HPM_P1;HPM_P2
2022/03/06 00:00:10;;;;;;;;;;;;;;;0.63;100.00;102372.63;5021589;28;19921;-79
2022/03/06 00:02:38;;;;;;;;;;;;;;;0.60;100.00;102372.31;5021138;28;19921;-80
2022/03/06 00:05:04;;;;;;;;;;;;;;;0.62;100.00;102375.97;5021586;28;20015;-80
2022/03/06 00:07:29;;;;;;;;;;;;;;;0.65;100.00;102381.47;5039324;28;19932;-80
2022/03/06 00:09:54;;;;;;;;;;;;;;;0.63;100.00;102377.81;5029280;28;19921;-79
2022/03/06 00:12:29;;;;;;;;;;;;;;;0.61;100.00;102374.16;5040838;28;19924;-80
2022/03/06 00:14:54;;;;;;;;;;;;;;;0.58;100.00;102379.94;5041377;28;20392;-81
2022/03/06 00:17:20;;;;;;;;;;;;;;;0.56;100.00;102384.06;5057913;28;19920;-80
2022/03/06 00:19:46;;;;;;;;;;;;;;;0.51;100.00;102385.25;5040497;28;19927;-82
2022/03/06 00:22:24;;;;;;;;;;;;;;;0.53;100.00;102382.06;5037616;28;19929;-79
2022/03/06 00:24:50;;;;;;;;;;;;;;;0.50;100.00;102379.16;5039858;28;19975;-80
2022/03/06 00:27:15;;;;;;;;;;;;;;;0.48;100.00;102378.13;5037695;28;19921;-81
2022/03/06 00:29:40;;;;;;;;;;;;;;;0.43;100.00;102371.53;5039724;28;19921;-80
2022/03/06 00:32:07;;;;;;;;;;;;;;;0.42;100.00;102384.34;5022472;28;19925;-81
2022/03/06 00:34:32;;;;;;;;;;;;;;;0.35;100.00;102385.41;5038600;28;19927;-80
2022/03/06 00:36:58;;;;;;;;;;;;;;;0.35;100.00;102383.72;5037546;28;20004;-80
2022/03/06 00:39:23;;;;;;;;;;;;;;;0.35;100.00;102381.13;5037385;28;19921;-80
2022/03/06 00:41:50;;;;;;;;;;;;;;;0.30;100.00;102386.63;5021708;28;19921;-82
2022/03/06 00:44:16;;;;;;;;;;;;;;;0.26;100.00;102381.88;5019578;28;19970;-79
2022/03/06 00:46:41;;;;;;;;;;;;;;;0.20;100.00;102381.25;5020158;28;20000;-80
2022/03/06 00:49:06;;;;;;;;;;;;;;;0.20;100.00;102379.56;5019767;28;20306;-80
2022/03/06 00:51:32;;;;;;;;;;;;;;;0.20;100.00;102384.72;5036920;28;19917;-80
2022/03/06 00:54:00;;;;;;;;;;;;;;;0.21;100.00;102386.56;5018966;28;19921;-81
2022/03/06 00:56:26;;;;;;;;;;;;;;;0.15;100.00;102383.34;5046920;28;19925;-81
2022/03/06 00:58:52;;;;;;;;;;;;;;;0.09;100.00;102399.19;5056392;28;19920;-81
2022/03/06 01:01:17;;;;;;;;;;;;;;;0.14;100.00;102397.06;5053546;28;19929;-80
2022/03/06 01:03:48;;;;;;;;;;;;;;;0.12;100.00;102403.78;5052666;28;19921;-80
2022/03/06 01:06:14;;;;;;;;;;;;;;;0.09;100.00;102401.75;5018417;28;20346;-79
2022/03/06 01:08:39;;;;;;;;;;;;;;;0.12;100.00;102398.59;5018807;28;20004;-81
2022/03/06 01:11:04;;;;;;;;;;;;;;;0.12;100.00;102408.94;5024388;28;19920;-80
2022/03/06 01:13:30;;;;;;;;;;;;;;;0.13;100.00;102408.19;5038353;28;20000;-79
2022/03/06 01:15:56;;;;;;;;;;;;;;;0.12;100.00;102412.44;5038016;28;19948;-81
2022/03/06 01:18:21;;;;;;;;;;;;;;;0.09;100.00;102416.41;5038097;28;19927;-81
2022/03/06 01:20:46;;;;;;;;;;;;;;;0.02;100.00;102413.94;5052999;28;19932;-81
2022/03/06 01:23:15;;;;;;;;;;;;;;;0.05;100.00;102419.44;5018535;28;20273;-81
2022/03/06 01:25:40;;;;;;;;;;;;;;;0.05;100.00;102419.44;5018599;28;19921;-81
2022/03/06 01:28:05;;;;;;;;;;;;;;;0.05;100.00;102424.59;5018780;28;19921;-79
2022/03/06 01:30:30;;;;;;;;;;;;;;;0.05;100.00;102417.78;5018856;28;19952;-79
2022/03/06 01:32:56;;;;;;;;;;;;;;;0.05;100.00;102422.97;5018924;28;19932;-80
2022/03/06 01:35:21;;;;;;;;;;;;;;;0.06;100.00;102429.94;5036064;28;19921;-80
2022/03/06 01:37:47;;;;;;;;;;;;;;;0.03;100.00;102427.03;5018550;28;19952;-79
2022/03/06 01:40:13;;;;;;;;;;;;;;;0.07;100.00;102438.66;5035517;28;20452;-80
2022/03/06 01:42:40;;;;;;;;;;;;;;;0.03;100.00;102432.22;5023658;28;19963;-80
2022/03/06 01:45:08;;;;;;;;;;;;;;;0.01;100.00;102441.50;5019096;28;19964;-80
2022/03/06 01:47:35;;;;;;;;;;;;;;;0.01;100.00;102433.75;5019007;28;19917;-80
2022/03/06 01:50:01;;;;;;;;;;;;;;;0.05;100.00;102442.75;5017683;28;19967;-80
2022/03/06 01:52:32;;;;;;;;;;;;;;;0.09;100.00;102439.72;5035692;28;19929;-80
2022/03/06 01:54:57;;;;;;;;;;;;;;;0.11;100.00;102433.94;5017736;28;19955;-80
2022/03/06 01:57:24;;;;;;;;;;;;;;;0.13;100.00;102435.00;5035706;28;19928;-80
2022/03/06 01:59:49;;;;;;;;;;;;;;;0.14;100.00;102430.75;5030813;28;19947;-81
2022/03/06 02:02:15;;;;;;;;;;;;;;;0.19;100.00;102437.34;5037700;28;20349;-79
2022/03/06 02:04:41;;;;;;;;;;;;;;;0.25;100.00;102443.16;5037794;28;19947;-81
2022/03/06 02:07:06;;;;;;;;;;;;;;;0.31;100.00;102438.59;5037551;28;20396;-81
2022/03/06 02:09:31;;;;;;;;;;;;;;;0.35;100.00;102440.72;5038125;28;19998;-81
2022/03/06 02:14:42;;;;;;;;;;;;;;;0.38;100.00;102436.63;5055708;28;20441;-80
2022/03/06 02:17:07;;;;;;;;;;;;;;;0.46;100.00;102435.72;5037510;28;19920;-80
2022/03/06 02:19:49;;;;;;;;;;;;;;;0.47;100.00;102442.75;5056170;28;20471;-80
2022/03/06 02:22:17;;;;;;;;;;;;;;;0.38;100.00;102442.72;5030331;28;20677;-80
2022/03/06 02:24:42;;;;;;;;;;;;;;;0.33;100.00;102438.75;5038622;28;19928;-80
2022/03/06 02:27:07;;;;;;;;;;;;;;;0.33;100.00;102434.47;5037552;28;19925;-79
2022/03/06 02:29:33;;;;;;;;;;;;;;;0.32;100.00;102436.91;5037683;28;19974;-80
2022/03/06 02:32:00;;;;;;;;;;;;;;;0.33;100.00;102431.88;5054652;28;20251;-80
2022/03/06 02:34:26;;;;;;;;;;;;;;;0.35;100.00;102435.53;5055306;28;20357;-80
2022/03/06 02:36:52;;;;;;;;;;;;;;;0.37;100.00;102433.09;5055759;28;19921;-80
2022/03/06 02:39:17;;;;;;;;;;;;;;;0.39;100.00;102431.59;5037030;28;20377;-80
2022/03/06 02:41:42;;;;;;;;;;;;;;;0.44;100.00;102426.91;5026965;28;19929;-81
2022/03/06 02:44:07;;;;;;;;;;;;;;;0.43;100.00;102425.03;5034583;28;19928;-80
2022/03/06 02:46:32;;;;;;;;;;;;;;;0.48;100.00;102434.19;5051025;28;19957;-80
2022/03/06 02:48:58;;;;;;;;;;;;;;;0.47;100.00;102440.16;5050949;28;20455;-80
2022/03/06 02:51:23;;;;;;;;;;;;;;;0.43;100.00;102440.59;5033480;28;19952;-79
2022/03/06 02:53:50;;;;;;;;;;;;;;;0.45;100.00;102440.00;5036609;28;19921;-80
2022/03/06 02:56:15;;;;;;;;;;;;;;;0.47;100.00;102434.97;5035981;28;19920;-80
2022/03/06 02:58:42;;;;;;;;;;;;;;;0.48;100.00;102434.19;5011726;28;19956;-80
2022/03/06 03:01:07;;;;;;;;;;;;;;;0.47;100.00;102437.56;5035265;28;19925;-81
2022/03/06 03:03:43;;;;;;;;;;;;;;;0.50;100.00;102443.06;5053780;28;20012;-81
2022/03/06 03:06:09;;;;;;;;;;;;;;;0.53;100.00;102433.00;5020483;28;19921;-80
2022/03/06 03:08:34;;;;;;;;;;;;;;;0.50;100.00;102441.38;5028202;28;19921;-81
2022/03/06 03:10:59;;;;;;;;;;;;;;;0.44;100.00;102443.34;5032056;28;20289;-80
2022/03/06 03:13:26;;;;;;;;;;;;;;;0.37;100.00;102445.16;5037164;28;19951;-80
2022/03/06 03:15:52;;;;;;;;;;;;;;;0.34;100.00;102449.28;5021505;28;19928;-80
2022/03/06 03:18:18;;;;;;;;;;;;;;;0.32;100.00;102453.34;5025515;28;19927;-80
2022/03/06 03:20:43;;;;;;;;;;;;;;;0.27;100.00;102448.50;5034533;28;20008;-81
2022/03/06 03:23:10;;;;;;;;;;;;;;;0.29;100.00;102453.03;5022138;28;19921;-80
2022/03/06 03:25:40;;;;;;;;;;;;;;;0.34;100.00;102466.47;5039351;28;20357;-81
2022/03/06 03:28:05;;;;;;;;;;;;;;;0.30;100.00;102459.16;5036033;28;19983;-81
2022/03/06 03:30:30;;;;;;;;;;;;;;;0.21;100.00;102458.22;5020374;28;19921;-81
2022/03/06 03:32:55;;;;;;;;;;;;;;;0.21;100.00;102461.72;5020066;28;19921;-80
2022/03/06 03:35:21;;;;;;;;;;;;;;;0.17;100.00;102462.13;5038274;28;19928;-81
2022/03/06 03:37:46;;;;;;;;;;;;;;;0.16;100.00;102466.41;5057931;28;20426;-81
2022/03/06 03:40:11;;;;;;;;;;;;;;;0.14;100.00;102456.66;5056949;28;19925;-81
2022/03/06 03:42:40;;;;;;;;;;;;;;;0.08;100.00;102463.78;5037208;28;19987;-81
2022/03/06 03:45:06;;;;;;;;;;;;;;;0.01;100.00;102461.31;5020116;28;19928;-80
2022/03/06 03:47:31;;;;;;;;;;;;;;;-0.06;100.00;102471.03;5031993;28;19917;-80
2022/03/06 03:49:57;;;;;;;;;;;;;;;-0.10;100.00;102462.78;5039851;28;20387;-80
2022/03/06 03:52:23;;;;;;;;;;;;;;;-0.17;100.00;102461.25;5057969;28;19921;-80
2022/03/06 03:54:48;;;;;;;;;;;;;;;-0.22;100.00;102462.41;5018992;28;19924;-81
2022/03/06 03:57:13;;;;;;;;;;;;;;;-0.19;100.00;102460.16;5049178;28;19946;-80
2022/03/06 03:59:39;;;;;;;;;;;;;;;-0.26;100.00;102465.47;5040355;28;19921;-81
2022/03/06 04:02:04;;;;;;;;;;;;;;;-0.30;100.00;102471.06;5040510;28;19960;-80
2022/03/06 04:04:30;;;;;;;;;;;;;;;-0.33;100.00;102460.38;5057622;28;19974;-80
2022/03/06 04:06:55;;;;;;;;;;;;;;;-0.40;100.00;102467.50;5040038;28;19921;-80
2022/03/06 04:09:20;;;;;;;;;;;;;;;-0.41;100.00;102469.91;5052114;28;19921;-80
2022/03/06 04:11:48;;;;;;;;;;;;;;;-0.46;100.00;102476.28;5039638;28;20426;-79
2022/03/06 04:14:13;;;;;;;;;;;;;;;-0.55;100.00;102466.78;5034380;28;19921;-81
2022/03/06 04:16:38;;;;;;;;;;;;;;;-0.53;100.00;102471.22;5019756;28;20273;-80
2022/03/06 04:19:04;;;;;;;;;;;;;;;-0.61;100.00;102479.06;5025233;28;19982;-80
2022/03/06 04:21:29;;;;;;;;;;;;;;;-0.64;100.00;102477.81;5039206;28;19928;-80
2022/03/06 04:23:56;;;;;;;;;;;;;;;-0.64;100.00;102473.56;5039281;28;20394;-79
2022/03/06 04:26:22;;;;;;;;;;;;;;;-0.61;100.00;102479.06;5032481;28;19945;-80
2022/03/06 04:28:47;;;;;;;;;;;;;;;-0.69;100.00;102486.78;5004642;28;20019;-80
2022/03/06 04:31:12;;;;;;;;;;;;;;;-0.72;100.00;102485.66;5038742;28;20406;-80
2022/03/06 04:33:39;;;;;;;;;;;;;;;-0.74;100.00;102487.19;5019459;28;19922;-80
2022/03/06 04:36:04;;;;;;;;;;;;;;;-0.80;100.00;102489.13;5037212;28;19921;-80
2022/03/06 04:38:30;;;;;;;;;;;;;;;-0.79;100.00;102490.97;5038713;28;20012;-80
2022/03/06 04:40:55;;;;;;;;;;;;;;;-0.82;100.00;102488.03;5024838;28;19921;-80
2022/03/06 04:43:24;;;;;;;;;;;;;;;-0.84;100.00;102499.91;5018391;28;20035;-79
2022/03/06 04:45:49;;;;;;;;;;;;;;;-0.88;100.00;102507.16;5030034;28;19921;-80
2022/03/06 04:48:14;;;;;;;;;;;;;;;-0.92;100.00;102505.88;5038728;28;19928;-81
2022/03/06 04:50:39;;;;;;;;;;;;;;;-0.91;100.00;102505.16;5022517;28;19947;-80
2022/03/06 04:53:05;;;;;;;;;;;;;;;-0.97;100.00;102509.66;5018551;28;20389;-80
2022/03/06 04:55:30;;;;;;;;;;;;;;;-1.03;100.00;102516.75;5018623;28;20220;-79
2022/03/06 04:57:55;;;;;;;;;;;;;;;-0.94;100.00;102508.31;5028148;28;19921;-80
2022/03/06 05:00:21;;;;;;;;;;;;;;;-0.97;100.00;102513.16;5037336;28;19927;-81
2022/03/06 05:03:00;;;;;;;;;;;;;;;-1.00;100.00;102514.50;5038241;28;20315;-79
2022/03/06 05:05:26;;;;;;;;;;;;;;;-1.05;100.00;102508.81;5037672;28;19956;-79
2022/03/06 05:07:51;;;;;;;;;;;;;;;-1.09;100.00;102516.97;5037916;28;19960;-80
2022/03/06 05:10:16;;;;;;;;;;;;;;;-1.09;100.00;102520.50;5032630;28;19925;-80
2022/03/06 05:12:56;;;;;;;;;;;;;;;-1.15;100.00;102522.41;5017943;28;19921;-81
2022/03/06 05:15:21;;;;;;;;;;;;;;;-1.18;100.00;102522.09;5023390;28;19927;-80
2022/03/06 05:17:47;;;;;;;;;;;;;;;-1.16;100.00;102520.56;5054993;28;20567;-80
2022/03/06 05:20:12;;;;;;;;;;;;;;;-1.18;100.00;102519.50;5034148;28;19925;-80
2022/03/06 05:22:40;;;;;;;;;;;;;;;-1.24;100.00;102515.28;5017903;28;20365;-80
2022/03/06 05:25:07;;;;;;;;;;;;;;;-1.24;100.00;102521.41;5017329;28;20004;-80
2022/03/06 05:27:32;;;;;;;;;;;;;;;-1.26;100.00;102525.47;5037360;28;20215;-80
2022/03/06 05:29:57;;;;;;;;;;;;;;;-1.27;100.00;102521.06;5037690;28;19928;-80
2022/03/06 05:32:33;;;;;;;;;;;;;;;-1.28;100.00;102527.88;5037426;28;19921;-80
2022/03/06 05:34:58;;;;;;;;;;;;;;;-1.29;100.00;102533.81;5037189;28;19928;-80
2022/03/06 05:37:23;;;;;;;;;;;;;;;-1.36;100.00;102531.28;5018593;28;19921;-80
2022/03/06 05:39:48;;;;;;;;;;;;;;;-1.42;100.00;102530.63;5052380;28;19921;-80
2022/03/06 05:42:16;;;;;;;;;;;;;;;-1.38;100.00;102537.03;5021505;28;19925;-80
2022/03/06 05:44:41;;;;;;;;;;;;;;;-1.36;100.00;102543.31;5050639;28;20314;-79
2022/03/06 05:47:07;;;;;;;;;;;;;;;-1.41;100.00;102539.28;5018323;28;19975;-79
2022/03/06 05:49:32;;;;;;;;;;;;;;;-1.50;100.00;102542.69;5017574;28;20369;-80
2022/03/06 05:52:02;;;;;;;;;;;;;;;-1.49;100.00;102541.94;5034512;28;19952;-81
2022/03/06 05:54:28;;;;;;;;;;;;;;;-1.40;100.00;102547.19;5017902;28;19921;-82
2022/03/06 05:56:53;;;;;;;;;;;;;;;-1.47;100.00;102545.59;5023332;28;19968;-81
2022/03/06 05:59:18;;;;;;;;;;;;;;;-1.48;100.00;102553.19;5016996;28;19924;-81
2022/03/06 06:01:44;;;;;;;;;;;;;;;-1.48;100.00;102554.09;5034680;28;19975;-81
2022/03/06 06:04:09;;;;;;;;;;;;;;;-1.41;100.00;102557.38;5016953;28;19921;-81
2022/03/06 06:06:34;;;;;;;;;;;;;;;-1.40;100.00;102554.03;5034603;28;19925;-80
2022/03/06 06:09:00;;;;;;;;;;;;;;;-1.41;100.00;102557.38;5017247;28;19921;-80
2022/03/06 06:11:25;;;;;;;;;;;;;;;-1.41;100.00;102559.94;5017564;28;20380;-80
2022/03/06 06:13:55;;;;;;;;;;;;;;;-1.42;100.00;102564.22;5051040;28;20043;-79
2022/03/06 06:16:21;;;;;;;;;;;;;;;-1.31;100.00;102562.81;5018221;28;19957;-81
2022/03/06 06:18:46;;;;;;;;;;;;;;;-1.23;100.00;102563.66;5017825;28;19971;-81
2022/03/06 06:21:13;;;;;;;;;;;;;;;-1.22;100.00;102571.59;5017936;28;20397;-82
2022/03/06 06:23:50;;;;;;;;;;;;;;;-1.22;100.00;102575.88;5033986;28;19925;-80
2022/03/06 06:26:17;;;;;;;;;;;;;;;-1.18;100.00;102578.94;5017809;28;20256;-81
2022/03/06 06:28:42;;;;;;;;;;;;;;;-1.13;100.00;102588.13;5017335;28;19948;-80
2022/03/06 06:31:08;;;;;;;;;;;;;;;-1.12;100.00;102589.03;5035933;28;19921;-82
2022/03/06 06:33:34;;;;;;;;;;;;;;;-1.03;100.00;102594.31;5017201;28;19971;-82
2022/03/06 06:35:59;;;;;;;;;;;;;;;-0.95;100.00;102602.19;5017700;28;19945;-81
2022/03/06 06:38:24;;;;;;;;;;;;;;;-0.92;100.00;102594.75;5056266;28;19928;-80
2022/03/06 06:40:50;;;;;;;;;;;;;;;-0.84;100.00;102598.19;5041192;28;19921;-81
2022/03/06 06:43:17;;;;;;;;;;;;;;;-0.75;100.00;102595.66;5040841;28;19921;-82
2022/03/06 06:45:42;;;;;;;;;;;;;;;-0.65;100.00;102615.69;5056682;28;19928;-79
2022/03/06 06:48:08;;;;;;;;;;;;;;;-0.62;100.00;102608.25;5040740;28;19921;-80
2022/03/06 06:50:33;;;;;;;;;;;;;;;-0.53;100.00;102616.13;5046724;28;19917;-81
2022/03/06 06:53:01;;;;;;;;;;;;;;;-0.49;100.00;102623.47;5021685;28;19921;-81
2022/03/06 06:55:27;;;;;;;;;;;;;;;-0.32;100.00;102622.72;5022241;28;19925;-82
2022/03/06 06:57:52;;;;;;;;;;;;;;;-0.20;100.00;102626.63;5026410;28;19921;-82
2022/03/06 07:00:17;;;;;;;;;;;;;;;-0.21;100.00;102627.38;5021161;28;19925;-81
2022/03/06 07:02:50;;;;;;;;;;;;;;;-0.12;100.00;102627.47;5038285;28;20357;-82
2022/03/06 07:05:15;;;;;;;;;;;;;;;-0.13;100.00;102630.78;5019562;28;19952;-81
2022/03/06 07:07:40;;;;;;;;;;;;;;;-0.15;100.00;102638.41;5003971;28;20369;-82
2022/03/06 07:10:06;;;;;;;;;;;;;;;-0.12;100.00;102645.59;5047004;28;19925;-81
2022/03/06 07:12:47;;;;;;;;;;;;;;;-0.10;100.00;102639.81;5039360;28;19921;-80
2022/03/06 07:15:13;;;;;;;;;;;;;;;-0.03;100.00;102642.31;5037364;28;19921;-82
2022/03/06 07:17:38;;;;;;;;;;;;;;;0.02;100.00;102645.38;5037552;28;19921;-82
2022/03/06 07:20:04;;;;;;;;;;;;;;;-0.01;100.00;102650.25;5038011;28;19948;-82
2022/03/06 07:22:29;;;;;;;;;;;;;;;0.08;100.00;102652.88;5039465;28;20380;-82
2022/03/06 07:24:55;;;;;;;;;;;;;;;0.20;100.00;102653.28;5035345;28;19975;-81
2022/03/06 07:27:20;;;;;;;;;;;;;;;0.38;100.00;102651.75;5031303;28;19921;-82
2022/03/06 07:29:45;;;;;;;;;;;;;;;0.71;100.00;102657.88;5020945;28;20337;-81
2022/03/06 07:32:16;;;;;;;;;;;;;;;0.94;100.00;102667.13;5019577;28;19928;-81
2022/03/06 07:34:41;;;;;;;;;;;;;;;1.11;100.00;102673.16;5038214;28;20007;-81
2022/03/06 07:37:06;;;;;;;;;;;;;;;1.00;100.00;102677.22;5039523;28;19971;-81
2022/03/06 07:39:32;;;;;;;;;;;;;;;1.14;100.00;102683.84;5056645;28;19921;-82
2022/03/06 07:42:05;;;;;;;;;;;;;;;1.21;100.00;102681.09;5057330;28;19921;-83
2022/03/06 07:44:30;;;;;;;;;;;;;;;1.17;100.00;102681.56;5039751;28;19974;-82
2022/03/06 07:46:56;;;;;;;;;;;;;;;1.25;100.00;102676.38;5020517;28;19925;-81
2022/03/06 07:49:22;;;;;;;;;;;;;;;1.47;100.00;102677.69;5019238;28;19974;-81
2022/03/06 07:52:20;;;;;;;;;;;;;;;1.42;100.00;102682.41;5018929;28;19925;-81
2022/03/06 07:54:45;;;;;;;;;;;;;;;1.28;100.00;102686.19;5019442;28;19921;-81
2022/03/06 07:57:11;;;;;;;;;;;;;;;1.25;100.00;102685.84;5019707;28;19975;-79
2022/03/06 07:59:46;;;;;;;;;;;;;;;1.50;100.00;102678.00;5056105;28;19944;-80
2022/03/06 08:02:17;;;;;;;;;;;;;;;1.70;100.00;102685.22;5038514;28;19920;-80
2022/03/06 08:04:43;;;;;;;;;;;;;;;1.73;100.00;102694.22;5020506;28;19944;-80
2022/03/06 08:07:08;;;;;;;;;;;;;;;1.92;100.00;102698.66;4999118;28;19921;-81
2022/03/06 08:09:33;;;;;;;;;;;;;;;2.34;100.00;102694.22;4999381;28;19922;-80
2022/03/06 08:12:00;;;;;;;;;;;;;;;2.29;100.00;102704.94;5016783;28;19922;-80
2022/03/06 08:14:26;;;;;;;;;;;;;;;2.23;100.00;102709.53;4999557;28;19921;-81
2022/03/06 08:16:51;;;;;;;;;;;;;;;2.13;100.00;102706.00;5011778;28;20106;-80
2022/03/06 08:19:20;;;;;;;;;;;;;;;2.17;100.00;102724.50;5018271;28;19921;-80
2022/03/06 08:21:48;;;;;;;;;;;;;;;2.23;100.00;102719.94;5018239;28;19921;-82
2022/03/06 08:24:14;;;;;;;;;;;;;;;2.05;100.00;102713.78;5034651;28;19939;-80
2022/03/06 08:26:39;;;;;;;;;;;;;;;2.14;100.00;102725.13;5036078;28;19917;-80
2022/03/06 08:29:05;;;;;;;;;;;;;;;2.24;100.00;102732.16;5036487;28;20005;-80
2022/03/06 08:31:32;;;;;;;;;;;;;;;2.23;100.00;102748.53;5018189;28;20420;-80
2022/03/06 08:34:02;;;;;;;;;;;;;;;2.24;100.00;102737.38;5017819;28;19968;-79
2022/03/06 08:36:27;;;;;;;;;;;;;;;2.41;100.00;102728.63;5036341;28;19925;-80
2022/03/06 08:38:52;;;;;;;;;;;;;;;2.59;100.00;102732.13;5017551;28;20350;-80
2022/03/06 08:41:18;;;;;;;;;;;;;;;2.65;100.00;102744.03;5036091;28;19921;-80
2022/03/06 08:43:43;;;;;;;;;;;;;;;2.45;100.00;102736.88;5017950;28;20415;-80
2022/03/06 08:46:08;;;;;;;;;;;;;;;2.61;100.00;102730.59;5018125;28;19928;-80
2022/03/06 08:48:36;;;;;;;;;;;;;;;2.59;100.00;102748.63;5050908;28;19926;-79
2022/03/06 08:51:02;;;;;;;;;;;;;;;2.64;100.00;102742.22;5034221;28;19991;-80
2022/03/06 08:53:28;;;;;;;;;;;;;;;2.80;100.00;102731.63;5035426;28;20334;-81
2022/03/06 08:55:54;;;;;;;;;;;;;;;2.66;100.00;102756.28;5035500;28;20354;-80
2022/03/06 08:58:19;;;;;;;;;;;;;;;2.53;100.00;102731.53;5036084;28;19975;-81
2022/03/06 09:00:44;;;;;;;;;;;;;;;2.63;100.00;102747.28;5017370;28;19921;-79
2022/03/06 09:03:14;;;;;;;;;;;;;;;2.71;100.00;102748.03;5017262;28;19928;-79
2022/03/06 09:05:40;;;;;;;;;;;;;;;2.69;100.00;102753.09;5023650;28;19927;-81
2022/03/06 09:08:06;;;;;;;;;;;;;;;2.64;100.00;102750.03;5036206;28;19921;-80
2022/03/06 09:10:31;;;;;;;;;;;;;;;2.54;100.00;102755.09;5036345;28;19998;-80
2022/03/06 09:13:00;;;;;;;;;;;;;;;2.57;100.00;102757.06;5035097;28;19925;-80
2022/03/06 09:15:26;;;;;;;;;;;;;;;2.62;100.00;102745.44;5035590;28;19990;-80
2022/03/06 09:17:51;;;;;;;;;;;;;;;2.62;100.00;102738.53;5019497;28;20353;-80
2022/03/06 09:20:22;;;;;;;;;;;;;;;2.55;100.00;102761.19;5046165;28;20519;-80
2022/03/06 09:22:52;;;;;;;;;;;;;;;2.70;100.00;102747.09;5015293;28;19984;-79
2022/03/06 09:25:18;;;;;;;;;;;;;;;2.59;100.00;102751.25;5015012;28;19921;-79
2022/03/06 09:27:43;;;;;;;;;;;;;;;2.59;100.00;102759.03;4997922;28;20640;-79
2022/03/06 09:30:09;;;;;;;;;;;;;;;2.76;100.00;102752.91;5028287;28;19928;-79
2022/03/06 09:32:37;;;;;;;;;;;;;;;2.73;100.00;102741.28;5020916;28;19925;-80
2022/03/06 09:35:03;;;;;;;;;;;;;;;2.79;100.00;102760.09;5022041;28;19927;-80
2022/03/06 09:37:28;;;;;;;;;;;;;;;2.91;100.00;102750.88;5035025;28;20007;-80
2022/03/06 09:39:54;;;;;;;;;;;;;;;3.04;100.00;102742.56;5035581;28;19921;-79
2022/03/06 09:42:25;;;;;;;;;;;;;;;3.01;100.00;102760.50;5034718;28;19921;-79
2022/03/06 09:44:50;;;;;;;;;;;;;;;3.01;100.00;102750.09;5019921;28;19948;-78
2022/03/06 09:47:16;;;;;;;;;;;;;;;3.13;100.00;102746.06;5050314;28;20378;-79
2022/03/06 09:49:43;;;;;;;;;;;;;;;2.99;100.00;102765.56;5034530;28;19967;-79
2022/03/06 09:52:09;;;;;;;;;;;;;;;3.06;100.00;102743.63;5016970;28;19921;-79
2022/03/06 09:54:35;;;;;;;;;;;;;;;3.02;100.00;102765.84;5017305;28;19970;-78
2022/03/06 09:57:00;;;;;;;;;;;;;;;3.00;100.00;102758.69;5033115;28;20011;-78
2022/03/06 09:59:25;;;;;;;;;;;;;;;3.28;100.00;102736.22;5036186;28;19957;-79
2022/03/06 10:01:53;;;;;;;;;;;;;;;3.19;100.00;102751.88;5036995;28;19921;-79
2022/03/06 10:04:29;;;;;;;;;;;;;;;3.15;100.00;102752.31;5032692;28;20023;-79
2022/03/06 10:07:08;;;;;;;;;;;;;;;3.16;100.00;102741.16;5036432;28;19928;-79
2022/03/06 10:09:41;;;;;;;;;;;;;;;3.05;100.00;102773.97;5030738;28;19921;-78
2022/03/06 10:15:03;;;;;;;;;;;;;;;3.35;100.00;102759.44;5038738;28;19928;-78
2022/03/06 10:17:29;;;;;;;;;;;;;;;3.39;100.00;102753.78;5021179;28;20381;-79
2022/03/06 10:19:58;;;;;;;;;;;;;;;3.28;100.00;102751.84;5021846;28;19922;-79
2022/03/06 10:22:26;;;;;;;;;;;;;;;3.40;100.00;102752.06;5032959;28;19921;-80
2022/03/06 10:24:59;;;;;;;;;;;;;;;3.51;100.00;102747.88;5041310;28;19920;-79
2022/03/06 10:27:44;;;;;;;;;;;;;;;3.68;100.00;102754.69;5041130;28;20343;-79
2022/03/06 10:30:23;;;;;;;;;;;;;;;3.50;100.00;102778.25;5040975;28;20349;-80
2022/03/06 10:32:49;;;;;;;;;;;;;;;3.52;100.00;102776.69;5040588;28;19921;-79
2022/03/06 10:35:14;;;;;;;;;;;;;;;3.53;100.00;102768.13;5040690;28;19917;-79
2022/03/06 10:37:40;;;;;;;;;;;;;;;3.48;100.00;102766.78;5040938;28;20254;-79
2022/03/06 10:40:05;;;;;;;;;;;;;;;3.61;100.00;102773.16;5040776;28;19924;-79
2022/03/06 10:42:38;;;;;;;;;;;;;;;3.69;100.00;102782.59;5040730;28;19921;-80
2022/03/06 10:45:04;;;;;;;;;;;;;;;3.85;100.00;102765.00;5037356;28;19921;-80
2022/03/06 10:47:45;;;;;;;;;;;;;;;3.82;100.00;102759.50;5021040;28;19921;-81
2022/03/06 10:50:11;;;;;;;;;;;;;;;3.80;100.00;102771.50;5026440;28;19951;-80
2022/03/06 10:52:43;;;;;;;;;;;;;;;3.78;100.00;102780.88;5040765;28;19925;-80
2022/03/06 10:55:09;;;;;;;;;;;;;;;3.68;100.00;102778.16;5058239;28;19921;-79
2022/03/06 10:57:34;;;;;;;;;;;;;;;3.77;100.00;102764.28;5040837;28;19975;-78
2022/03/06 11:00:00;;;;;;;;;;;;;;;3.84;100.00;102760.59;5039920;28;19921;-78
2022/03/06 11:02:31;;;;;;;;;;;;;;;3.99;100.00;102775.81;5040016;28;19944;-78
2022/03/06 11:04:58;;;;;;;;;;;;;;;3.82;100.00;102769.94;5040073;28;19920;-78
2022/03/06 11:07:26;;;;;;;;;;;;;;;4.04;100.00;102771.94;5040078;28;19920;-79
2022/03/06 11:09:52;;;;;;;;;;;;;;;4.01;100.00;102762.16;5034061;28;20008;-79
2022/03/06 11:12:22;;;;;;;;;;;;;;;4.01;100.00;102766.44;5031466;28;19921;-79
2022/03/06 11:14:47;;;;;;;;;;;;;;;4.20;100.00;102769.09;5040090;28;19964;-79
2022/03/06 11:17:13;;;;;;;;;;;;;;;4.29;100.00;102760.41;5039361;28;19925;-79
2022/03/06 11:19:38;;;;;;;;;;;;;;;4.38;100.00;102780.28;5039883;28;19983;-79
2022/03/06 11:22:13;;;;;;;;;;;;;;;4.21;100.00;102766.63;5033169;28;19921;-78
2022/03/06 11:24:44;;;;;;;;;;;;;;;4.25;100.00;102765.22;5020964;28;19927;-80
2022/03/06 11:27:12;;;;;;;;;;;;;;;4.22;100.00;102773.66;5036796;28;20421;-80
2022/03/06 11:29:37;;;;;;;;;;;;;;;4.24;100.00;102773.78;5037617;28;19932;-80
2022/03/06 11:32:04;;;;;;;;;;;;;;;4.22;100.00;102772.75;5039303;28;19921;-80
2022/03/06 11:34:31;;;;;;;;;;;;;;;4.32;100.00;102763.31;5039841;28;19928;-78
2022/03/06 11:36:56;;;;;;;;;;;;;;;4.27;100.00;102767.19;5040984;28;19967;-77
2022/03/06 11:39:28;;;;;;;;;;;;;;;4.33;100.00;102777.25;5040652;28;20331;-78
2022/03/06 11:42:03;;;;;;;;;;;;;;;4.29;100.00;102776.06;5057379;28;19921;-80
2022/03/06 11:44:38;;;;;;;;;;;;;;;4.32;100.00;102781.56;5039676;28;19921;-78
2022/03/06 11:47:21;;;;;;;;;;;;;;;4.38;100.00;102769.84;5026104;28;19921;-78
2022/03/06 11:49:59;;;;;;;;;;;;;;;4.61;100.00;102775.47;5037204;28;19929;-78
2022/03/06 11:52:41;;;;;;;;;;;;;;;4.55;100.00;102764.47;5031802;28;19971;-80
2022/03/06 11:55:25;;;;;;;;;;;;;;;4.67;100.00;102764.69;5036039;28;19979;-78
2022/03/06 11:57:51;;;;;;;;;;;;;;;4.67;100.00;102776.03;5036648;28;20035;-78
2022/03/06 12:00:20;;;;;;;;;;;;;;;4.60;100.00;102765.81;5024439;28;19939;-78
2022/03/06 12:02:50;;;;;;;;;;;;;;;4.74;100.00;102750.47;5037553;28;19933;-80
2022/03/06 12:05:16;;;;;;;;;;;;;;;4.55;100.00;102764.47;5038906;28;19924;-79
2022/03/06 12:07:42;;;;;;;;;;;;;;;4.62;100.00;102758.13;5020987;28;19928;-80
2022/03/06 12:10:11;;;;;;;;;;;;;;;4.55;100.00;102759.25;5036582;28;19999;-79
2022/03/06 12:12:39;;;;;;;;;;;;;;;4.75;100.00;102749.72;5018703;28;20116;-79
2022/03/06 12:15:14;;;;;;;;;;;;;;;4.61;100.00;102743.25;5019133;28;20397;-79
2022/03/06 12:17:40;;;;;;;;;;;;;;;4.47;100.00;102745.53;5019210;28;20012;-79
2022/03/06 12:20:08;;;;;;;;;;;;;;;4.71;100.00;102739.75;5036201;28;19967;-80
2022/03/06 12:22:55;;;;;;;;;;;;;;;4.83;100.00;102746.09;5020846;28;19921;-78
2022/03/06 12:25:24;;;;;;;;;;;;;;;4.73;100.00;102725.19;5035749;28;19921;-78
2022/03/06 12:28:10;;;;;;;;;;;;;;;4.81;100.00;102732.91;5054050;28;19956;-79
2022/03/06 12:30:36;;;;;;;;;;;;;;;4.86;100.00;102733.31;5045343;28;19927;-79
2022/03/06 12:33:21;;;;;;;;;;;;;;;4.63;100.00;102726.97;5034526;28;19925;-77
2022/03/06 12:35:46;;;;;;;;;;;;;;;4.64;100.00;102712.22;5014891;28;19922;-80
2022/03/06 12:38:20;;;;;;;;;;;;;;;4.94;100.00;102720.94;4998575;28;20004;-80